Sacramento, California
Traffic Map
Current Weather Conditions
Sacramento, California
Clear
Clear
78°
Feels Like: 78°
Wind Chill: 78° Ceiling: Unl
Heat Index: 78° Visibility: 10mi
Dew Point: 33° Wind: 5mph
Humidity: 19% Direction: ° ()
Pressure: 29.95in Gusts: 0mph
Raw Report DataKSAC 241953Z VRB04KT 10SM CLR 26/01 A2995 RMK AO2 SLP140 T02560006
Traffic Incident Summary
Active as of:
Severity:
Category:
InformationThere was an issue retrieving the traffic information for this location. Please try a different location or try again shortly.
Advertisements